Time;durP1;ratioP1;P1;durP2;ratioP2;P2;SDS_P1;SDS_P2;PMS_P1;PMS_P2;Temp;Humidity;BMP_temperature;BMP_pressure;BME280_temperature;BME280_humidity;BME280_pressure;Samples;Min_cycle;Max_cycle;Signal;HPM_P1;HPM_P2
2022/03/05 00:02:13;;;;;;;23.40;14.50;;;;;;;2.46;76.93;101913.16;5295974;28;20030;-70
2022/03/05 00:04:45;;;;;;;24.25;15.25;;;;;;;2.38;76.65;101902.25;5294601;28;20016;-71
2022/03/05 00:07:16;;;;;;;29.63;17.02;;;;;;;2.38;76.90;101908.25;5295558;28;20023;-70
2022/03/05 00:09:47;;;;;;;27.08;15.68;;;;;;;2.29;77.53;101911.16;5295170;28;20034;-70
2022/03/05 00:12:19;;;;;;;23.48;14.45;;;;;;;2.24;77.73;101913.06;5294559;28;20199;-71
2022/03/05 00:14:50;;;;;;;25.75;15.40;;;;;;;2.26;77.90;101913.84;5295991;28;20024;-69
2022/03/05 00:17:22;;;;;;;26.85;16.00;;;;;;;2.26;78.15;101913.84;5294485;28;20119;-70
2022/03/05 00:19:54;;;;;;;28.92;15.98;;;;;;;2.24;78.44;101919.97;5295384;28;20027;-71
2022/03/05 00:22:26;;;;;;;26.77;16.48;;;;;;;2.19;77.73;101915.78;5295193;28;20093;-71
2022/03/05 00:24:58;;;;;;;25.33;14.88;;;;;;;2.27;78.53;101925.03;5294775;28;20153;-71
2022/03/05 00:27:30;;;;;;;29.27;17.05;;;;;;;2.13;78.51;101920.31;5294906;28;20581;-71
2022/03/05 00:30:02;;;;;;;27.98;16.30;;;;;;;2.13;78.84;101922.91;5296079;28;20028;-71
2022/03/05 00:32:33;;;;;;;28.77;16.23;;;;;;;2.12;78.93;101919.47;5295813;28;20737;-71
2022/03/05 00:35:06;;;;;;;29.52;17.10;;;;;;;2.10;79.03;101923.84;5298147;28;20110;-69
2022/03/05 00:37:37;;;;;;;26.90;16.70;;;;;;;1.99;79.60;101927.66;5298714;28;20115;-70
2022/03/05 00:40:09;;;;;;;29.33;16.98;;;;;;;2.03;80.47;101921.50;5299722;28;20045;-70
2022/03/05 00:42:41;;;;;;;27.27;16.70;;;;;;;1.93;80.25;101908.88;5297605;28;20036;-70
2022/03/05 00:45:12;;;;;;;34.83;17.75;;;;;;;1.91;80.06;101918.41;5299187;28;20111;-70
2022/03/05 00:47:43;;;;;;;27.20;16.20;;;;;;;1.94;80.64;101912.31;5298233;28;20604;-71
2022/03/05 00:50:15;;;;;;;29.58;18.42;;;;;;;1.78;81.03;101913.66;5298982;28;20490;-71
2022/03/05 00:52:46;;;;;;;29.13;17.50;;;;;;;1.81;81.51;101911.81;5298628;28;20161;-71
2022/03/05 00:55:17;;;;;;;29.92;18.13;;;;;;;1.79;81.05;101916.22;5280997;28;20032;-70
2022/03/05 00:57:49;;;;;;;30.55;17.63;;;;;;;1.68;81.48;101911.38;5296981;28;20069;-71
2022/03/05 01:00:20;;;;;;;30.15;18.60;;;;;;;1.66;81.38;101913.13;5298609;28;20032;-70
2022/03/05 01:02:52;;;;;;;30.73;19.13;;;;;;;1.67;81.93;101916.59;5298808;28;20085;-71
2022/03/05 01:05:23;;;;;;;31.58;17.73;;;;;;;1.60;81.96;101910.78;5298471;28;20609;-70
2022/03/05 01:07:55;;;;;;;29.58;18.15;;;;;;;1.61;82.31;101919.34;5298795;28;20028;-70
2022/03/05 01:10:26;;;;;;;28.60;17.95;;;;;;;1.62;82.53;101913.28;5298755;28;20031;-70
2022/03/05 01:12:57;;;;;;;31.92;18.70;;;;;;;1.67;82.28;101919.19;5299024;28;20073;-71
2022/03/05 01:15:29;;;;;;;31.35;18.70;;;;;;;1.59;81.93;101910.78;5298504;28;20035;-70
2022/03/05 01:18:00;;;;;;;33.30;19.83;;;;;;;1.58;82.00;101915.13;5299199;28;20028;-70
2022/03/05 01:20:31;;;;;;;30.02;19.35;;;;;;;1.61;83.76;101909.03;5299094;28;20027;-70
2022/03/05 01:23:03;;;;;;;32.83;20.27;;;;;;;1.58;82.19;101909.94;5298002;28;20498;-70
2022/03/05 01:25:34;;;;;;;31.67;19.17;;;;;;;1.54;81.95;101916.09;5280260;28;20024;-70
2022/03/05 01:28:05;;;;;;;34.65;20.45;;;;;;;1.46;81.58;101903.41;5298933;28;20124;-71
2022/03/05 01:30:38;;;;;;;32.33;18.65;;;;;;;1.50;81.06;101911.09;5298210;28;20035;-70
2022/03/05 01:33:09;;;;;;;31.25;19.42;;;;;;;1.49;82.72;101910.25;5297221;28;20500;-70
2022/03/05 01:35:45;;;;;;;33.92;19.75;;;;;;;1.52;83.06;101904.16;5298231;28;20019;-70
2022/03/05 01:38:17;;;;;;;34.17;20.45;;;;;;;1.44;81.93;101906.97;5280317;28;20024;-70
2022/03/05 01:40:48;;;;;;;34.20;21.63;;;;;;;1.48;83.85;101912.84;5297500;28;20438;-70
2022/03/05 01:43:20;;;;;;;33.30;20.42;;;;;;;1.40;83.50;101906.22;5297521;28;20077;-70
2022/03/05 01:45:51;;;;;;;32.47;19.88;;;;;;;1.41;82.41;101907.88;5298339;28;20059;-70
2022/03/05 01:48:22;;;;;;;33.30;20.02;;;;;;;1.34;82.27;101908.13;5313095;22;20059;-69
2022/03/05 01:50:54;;;;;;;34.65;21.40;;;;;;;1.33;83.79;101909.00;5291950;28;20031;-69
2022/03/05 01:53:25;;;;;;;34.88;20.77;;;;;;;1.24;83.63;101915.25;5297632;28;20041;-69
2022/03/05 01:55:57;;;;;;;35.90;19.88;;;;;;;1.26;83.40;101908.34;5298494;28;20028;-69
2022/03/05 01:58:28;;;;;;;34.92;20.92;;;;;;;1.18;84.27;101912.88;5297996;28;20116;-71
2022/03/05 02:00:59;;;;;;;36.08;21.25;;;;;;;1.16;83.28;101910.31;5298253;28;20028;-69
2022/03/05 02:03:30;;;;;;;32.15;20.58;;;;;;;1.15;82.79;101910.38;5298159;28;20024;-69
2022/03/05 02:06:02;;;;;;;33.47;20.23;;;;;;;1.15;83.59;101915.53;5297585;28;20703;-69
2022/03/05 02:08:33;;;;;;;34.17;20.98;;;;;;;1.09;84.16;101901.06;5298471;28;20069;-69
2022/03/05 02:11:05;;;;;;;34.03;21.70;;;;;;;1.04;83.74;101905.50;5298650;28;20108;-69
2022/03/05 02:13:36;;;;;;;38.28;20.98;;;;;;;1.02;83.54;101914.19;5298242;28;20031;-69
2022/03/05 02:16:10;;;;;;;33.60;20.55;;;;;;;1.11;85.42;101904.47;5297991;28;20472;-69
2022/03/05 02:18:46;;;;;;;33.30;21.13;;;;;;;1.02;84.78;101902.13;5297277;28;20156;-70
2022/03/05 02:21:18;;;;;;;36.75;22.17;;;;;;;0.92;85.28;101900.72;5298484;28;20031;-69
2022/03/05 02:23:49;;;;;;;38.15;21.95;;;;;;;0.91;87.03;101896.41;5298098;28;20020;-69
2022/03/05 02:26:22;;;;;;;37.15;23.02;;;;;;;0.76;88.37;101894.25;5297734;28;20038;-69
2022/03/05 02:28:54;;;;;;;35.70;22.75;;;;;;;0.70;88.95;101893.53;5298203;28;20027;-69
2022/03/05 02:31:25;;;;;;;41.33;22.95;;;;;;;0.67;89.76;101887.63;5297808;28;20028;-70
2022/03/05 02:33:58;;;;;;;40.88;23.27;;;;;;;0.66;89.19;101883.34;5296645;28;20515;-69
2022/03/05 02:36:29;;;;;;;36.60;21.53;;;;;;;0.67;89.69;101890.19;5297268;28;20392;-69
2022/03/05 02:39:00;;;;;;;34.03;21.00;;;;;;;0.65;89.24;101877.34;5298018;28;20036;-70
2022/03/05 02:41:32;;;;;;;36.67;22.98;;;;;;;0.69;88.99;101888.44;5297487;28;20024;-69
2022/03/05 02:44:03;;;;;;;38.67;22.98;;;;;;;0.68;89.27;101881.56;5297068;28;20016;-69
2022/03/05 02:46:35;;;;;;;39.05;22.92;;;;;;;0.65;89.32;101895.41;5296782;28;20032;-69
2022/03/05 02:49:06;;;;;;;39.50;22.70;;;;;;;0.64;88.03;101896.28;5295243;28;20114;-68
2022/03/05 02:51:38;;;;;;;38.80;23.13;;;;;;;0.64;88.33;101903.16;5297197;28;20027;-69
2022/03/05 02:54:10;;;;;;;37.17;21.45;;;;;;;0.63;88.32;101901.47;5297004;28;20417;-69
2022/03/05 02:56:41;;;;;;;37.78;22.13;;;;;;;0.63;88.07;101897.16;5296161;28;20115;-68
2022/03/05 02:59:12;;;;;;;40.85;22.45;;;;;;;0.60;87.78;101896.41;5296958;28;20034;-69
2022/03/05 03:01:45;;;;;;;43.67;23.15;;;;;;;0.58;87.56;101893.03;5295886;28;20051;-69
2022/03/05 03:04:16;;;;;;;39.00;22.10;;;;;;;0.55;88.20;101899.09;5296304;28;20545;-69
2022/03/05 03:06:50;;;;;;;36.25;21.65;;;;;;;0.57;86.82;101899.91;5296424;28;20284;-68
2022/03/05 03:09:21;;;;;;;39.92;23.75;;;;;;;0.58;87.80;101893.03;5297147;28;20170;-68
2022/03/05 03:11:52;;;;;;;35.97;22.38;;;;;;;0.57;88.28;101893.88;5296977;28;20455;-69
2022/03/05 03:14:23;;;;;;;33.90;21.42;;;;;;;0.58;87.61;101903.34;5295708;28;20396;-69
2022/03/05 03:16:55;;;;;;;37.75;22.70;;;;;;;0.46;87.03;101895.03;5297372;28;20095;-68
2022/03/05 03:19:26;;;;;;;39.03;22.80;;;;;;;0.45;86.81;101892.47;5297505;28;20039;-69
2022/03/05 03:21:57;;;;;;;42.30;23.42;;;;;;;0.44;88.75;101883.06;5296270;28;20028;-68
2022/03/05 03:24:28;;;;;;;41.05;22.80;;;;;;;0.43;87.36;101891.69;5296039;28;20023;-69
2022/03/05 03:27:00;;;;;;;38.42;22.38;;;;;;;0.35;88.05;101883.31;5296994;28;20032;-69
2022/03/05 03:29:31;;;;;;;34.40;20.98;;;;;;;0.45;87.70;101893.31;5297277;28;20056;-69
2022/03/05 03:32:04;;;;;;;37.38;22.60;;;;;;;0.30;86.96;101885.97;5296192;28;20024;-68
2022/03/05 03:34:35;;;;;;;39.28;21.95;;;;;;;0.22;87.86;101888.75;5297103;28;20080;-69
2022/03/05 03:37:06;;;;;;;34.92;22.02;;;;;;;0.19;88.78;101883.69;5296304;28;20036;-69
2022/03/05 03:39:37;;;;;;;38.40;22.25;;;;;;;0.13;89.32;101885.56;5296028;28;20024;-68
2022/03/05 03:42:09;;;;;;;36.97;22.23;;;;;;;0.07;88.16;101881.41;5296793;28;20036;-69
2022/03/05 03:44:40;;;;;;;38.35;22.80;;;;;;;0.05;89.63;101878.03;5296791;28;20557;-68
2022/03/05 03:47:11;;;;;;;39.30;23.35;;;;;;;0.07;88.60;101889.13;5294672;28;20711;-69
2022/03/05 03:49:43;;;;;;;40.15;24.00;;;;;;;0.05;89.52;101890.06;5296172;28;20020;-69
2022/03/05 03:52:14;;;;;;;37.72;21.27;;;;;;;-0.02;88.73;101891.94;5296719;28;20035;-68
2022/03/05 03:54:47;;;;;;;39.95;23.40;;;;;;;-0.04;89.71;101878.25;5296656;28;20204;-69
2022/03/05 03:57:19;;;;;;;37.50;23.38;;;;;;;0.00;89.36;101892.78;5295911;28;20039;-69
2022/03/05 03:59:51;;;;;;;36.92;22.33;;;;;;;-0.02;88.85;101892.78;5296416;28;20353;-68
2022/03/05 04:02:23;;;;;;;37.70;22.30;;;;;;;-0.04;90.95;101884.28;5296079;28;20039;-69
2022/03/05 04:04:54;;;;;;;39.42;22.02;;;;;;;-0.04;91.11;101879.13;5277596;28;20043;-69
2022/03/05 04:10:16;;;;;;;37.35;22.48;;;;;;;0.03;91.65;101884.94;5300847;28;20028;-69
2022/03/05 04:12:47;;;;;;;40.50;22.67;;;;;;;-0.18;91.62;101870.88;5300355;28;20024;-69
2022/03/05 04:15:19;;;;;;;38.90;23.45;;;;;;;-0.06;92.17;101883.44;5300246;28;20028;-69
2022/03/05 04:17:51;;;;;;;41.45;23.63;;;;;;;-0.08;92.48;101881.78;5299912;28;20511;-68
2022/03/05 04:20:22;;;;;;;40.20;22.63;;;;;;;-0.02;92.84;101894.53;5300130;28;20111;-69
2022/03/05 04:22:53;;;;;;;37.25;22.48;;;;;;;-0.13;93.24;101889.63;5300512;28;20039;-69
2022/03/05 04:25:28;;;;;;;39.65;23.17;;;;;;;-0.07;93.58;101891.22;5299840;28;20369;-68
2022/03/05 04:27:59;;;;;;;41.50;23.27;;;;;;;-0.18;94.02;101881.16;5300955;28;20020;-69
2022/03/05 04:30:31;;;;;;;41.47;24.67;;;;;;;-0.09;94.93;101887.81;5300288;28;20097;-69
2022/03/05 04:33:02;;;;;;;39.20;24.75;;;;;;;-0.09;94.91;101890.41;5299396;28;20035;-69
2022/03/05 04:35:33;;;;;;;39.15;24.13;;;;;;;-0.12;95.36;101891.31;5299747;28;20025;-69
2022/03/05 04:38:05;;;;;;;41.53;24.15;;;;;;;-0.11;94.40;101897.34;5300718;28;20143;-69
2022/03/05 04:40:36;;;;;;;43.45;25.02;;;;;;;-0.14;95.17;101898.25;5300582;28;20028;-69
2022/03/05 04:43:07;;;;;;;40.55;23.25;;;;;;;-0.06;94.38;101900.63;5299031;28;20024;-69
2022/03/05 04:45:40;;;;;;;42.83;23.65;;;;;;;-0.13;94.43;101914.53;5300215;28;20456;-69
2022/03/05 04:48:11;;;;;;;39.97;24.13;;;;;;;-0.06;94.92;101905.78;5300447;28;20500;-68
2022/03/05 04:50:45;;;;;;;39.28;23.20;;;;;;;-0.11;95.28;101908.47;5299346;28;20043;-69
2022/03/05 04:53:19;;;;;;;41.45;24.02;;;;;;;-0.12;94.89;101903.34;5298715;28;20612;-69
2022/03/05 04:55:51;;;;;;;39.63;23.52;;;;;;;-0.13;95.00;101904.22;5299677;28;20546;-69
2022/03/05 04:58:22;;;;;;;43.10;24.67;;;;;;;-0.09;96.14;101903.28;5300164;28;20066;-69
2022/03/05 05:00:53;;;;;;;41.35;23.52;;;;;;;-0.16;95.76;101910.28;5297317;28;20553;-69
2022/03/05 05:03:25;;;;;;;45.55;24.25;;;;;;;-0.15;95.52;101903.41;5299513;28;20103;-68
2022/03/05 05:05:56;;;;;;;41.05;24.50;;;;;;;-0.19;95.67;101909.50;5298475;28;20098;-68
2022/03/05 05:08:28;;;;;;;45.67;25.48;;;;;;;-0.28;96.34;101908.84;5298425;28;20484;-68
2022/03/05 05:10:59;;;;;;;38.85;23.10;;;;;;;-0.23;97.50;101903.59;5299777;28;20449;-69
2022/03/05 05:13:30;;;;;;;40.67;23.73;;;;;;;-0.29;97.95;101908.91;5299904;28;20592;-68
2022/03/05 05:16:02;;;;;;;44.05;24.30;;;;;;;-0.30;98.33;101908.06;5299355;28;20119;-68
2022/03/05 05:18:33;;;;;;;44.95;24.70;;;;;;;-0.32;99.11;101907.22;5297968;28;20028;-68
2022/03/05 05:21:05;;;;;;;39.33;23.17;;;;;;;-0.30;98.55;101910.63;5299454;28;20429;-68
2022/03/05 05:23:37;;;;;;;47.70;24.80;;;;;;;-0.35;98.70;101904.72;5299207;28;20024;-69
2022/03/05 05:26:08;;;;;;;42.50;23.73;;;;;;;-0.36;98.26;101904.75;5298563;28;20035;-68
2022/03/05 05:28:39;;;;;;;47.92;24.40;;;;;;;-0.33;100.00;101909.84;5299203;28;20101;-69
2022/03/05 05:31:10;;;;;;;44.58;24.75;;;;;;;-0.36;100.00;101912.47;5299322;28;20028;-69
2022/03/05 05:33:44;;;;;;;44.97;24.30;;;;;;;-0.47;100.00;101914.44;5298370;28;20036;-68
2022/03/05 05:36:15;;;;;;;;;;;;;;;0.02;97.17;101923.63;5299468;28;20438;-69
2022/03/05 05:38:46;;;;;;;41.78;22.48;;;;;;;-0.33;100.00;101928.72;5298343;28;19920;-69
2022/03/05 05:41:18;;;;;;;40.95;22.65;;;;;;;-0.40;98.50;101928.88;5297902;28;20044;-69
2022/03/05 05:43:49;;;;;;;43.15;24.85;;;;;;;-0.39;100.00;101928.84;5298451;28;20534;-69
2022/03/05 05:46:21;;;;;;;46.00;24.98;;;;;;;-0.40;100.00;101931.44;5299233;28;20028;-68
2022/03/05 05:48:52;;;;;;;41.35;23.02;;;;;;;-0.45;100.00;101928.97;5298122;28;20036;-68
2022/03/05 05:51:25;;;;;;;45.17;23.60;;;;;;;-0.51;100.00;101929.09;5298391;28;20032;-69
2022/03/05 05:53:57;;;;;;;47.30;23.58;;;;;;;-0.51;100.00;101932.53;5297764;28;20060;-69
2022/03/05 05:56:28;;;;;;;43.08;24.45;;;;;;;-0.60;100.00;101934.47;5280129;28;20618;-69
2022/03/05 05:58:59;;;;;;;38.03;22.17;;;;;;;-0.58;100.00;101942.97;5280332;28;20503;-69
2022/03/05 06:01:31;;;;;;;44.22;23.55;;;;;;;-0.57;100.00;101940.38;5298372;28;20073;-69
2022/03/05 06:04:02;;;;;;;41.28;22.73;;;;;;;-0.55;100.00;101935.19;5297207;28;20028;-69
2022/03/05 06:06:34;;;;;;;43.78;23.75;;;;;;;-0.68;100.00;101931.16;5298018;28;20389;-69
2022/03/05 06:09:05;;;;;;;42.47;23.48;;;;;;;-0.70;100.00;101930.38;5298377;28;20024;-69
2022/03/05 06:11:36;;;;;;;43.72;22.20;;;;;;;-0.68;100.00;101936.31;5298266;28;20019;-69
2022/03/05 06:14:08;;;;;;;42.83;23.38;;;;;;;-0.74;100.00;101930.44;5298075;28;20082;-69
2022/03/05 06:16:39;;;;;;;43.17;22.92;;;;;;;-0.78;100.00;101928.81;5297577;28;20115;-69
2022/03/05 06:19:11;;;;;;;43.38;23.23;;;;;;;-0.70;100.00;101927.81;5297851;28;20191;-69
2022/03/05 06:21:42;;;;;;;38.40;22.85;;;;;;;-0.66;100.00;101939.72;5298349;28;20024;-69
2022/03/05 06:24:13;;;;;;;41.38;22.92;;;;;;;-0.66;100.00;101926.84;5297195;28;20170;-69
2022/03/05 06:26:44;;;;;;;40.13;22.02;;;;;;;-0.70;100.00;101933.78;5297690;28;20020;-69
2022/03/05 06:29:16;;;;;;;42.38;24.33;;;;;;;-0.69;100.00;101932.91;5297540;28;20032;-69
2022/03/05 06:31:47;;;;;;;38.13;22.55;;;;;;;-0.68;100.00;101932.03;5298283;28;20035;-69
2022/03/05 06:34:18;;;;;;;43.35;22.70;;;;;;;-0.63;100.00;101948.22;5297300;28;20397;-69
2022/03/05 06:36:49;;;;;;;46.33;24.85;;;;;;;-0.64;100.00;101941.41;5298132;28;20477;-69
2022/03/05 06:39:21;;;;;;;44.80;22.52;;;;;;;-0.64;100.00;101943.97;5278213;28;20472;-69
2022/03/05 06:41:52;;;;;;;41.47;21.50;;;;;;;-0.53;100.00;101947.16;5297601;28;20016;-69
2022/03/05 06:44:23;;;;;;;42.38;22.83;;;;;;;-0.53;100.00;101946.28;5297570;28;20031;-69
2022/03/05 06:46:55;;;;;;;42.13;23.50;;;;;;;-0.53;100.00;101947.16;5296770;28;20111;-69
2022/03/05 06:49:26;;;;;;;40.65;22.90;;;;;;;-0.48;100.00;101951.38;5296545;28;20073;-69
2022/03/05 06:51:58;;;;;;;43.70;23.05;;;;;;;-0.48;100.00;101948.78;5297258;28;20493;-69
2022/03/05 06:54:29;;;;;;;41.92;23.15;;;;;;;-0.51;100.00;101949.69;5296449;28;20492;-69
2022/03/05 06:57:01;;;;;;;42.22;22.85;;;;;;;-0.46;100.00;101947.88;5297438;28;20032;-69
2022/03/05 06:59:32;;;;;;;39.85;22.38;;;;;;;-0.39;100.00;101949.44;5297084;28;20059;-69
2022/03/05 07:02:03;;;;;;;43.03;23.60;;;;;;;-0.45;100.00;101948.75;5294156;28;20524;-69
2022/03/05 07:04:34;;;;;;;43.53;23.10;;;;;;;-0.38;100.00;101960.56;5292037;28;20283;-69
2022/03/05 07:07:06;;;;;;;41.40;23.00;;;;;;;-0.33;100.00;101958.75;5297019;28;20028;-69
2022/03/05 07:09:37;;;;;;;41.40;22.15;;;;;;;-0.33;100.00;101962.19;5296912;28;20015;-69
2022/03/05 07:12:09;;;;;;;43.78;23.13;;;;;;;-0.41;100.00;101948.63;5296378;28;20084;-69
2022/03/05 07:14:44;;;;;;;44.78;22.17;;;;;;;-0.39;100.00;101964.88;5277177;28;20516;-69
2022/03/05 07:17:16;;;;;;;45.45;23.67;;;;;;;-0.41;100.00;101956.34;5296690;28;20477;-69
2022/03/05 07:19:47;;;;;;;44.22;23.67;;;;;;;-0.37;100.00;101967.44;5296768;28;20035;-70
2022/03/05 07:22:18;;;;;;;42.58;22.35;;;;;;;-0.35;100.00;101975.97;5296295;28;20016;-69
2022/03/05 07:24:50;;;;;;;40.90;22.15;;;;;;;-0.35;100.00;101979.38;5296296;28;20051;-69
2022/03/05 07:27:21;;;;;;;43.75;23.05;;;;;;;-0.31;100.00;101978.44;5296591;28;20086;-70
2022/03/05 07:29:53;;;;;;;40.88;22.10;;;;;;;-0.34;100.00;101973.38;5296373;28;20505;-70
2022/03/05 07:32:24;;;;;;;45.80;23.60;;;;;;;-0.29;100.00;101978.41;5296755;28;20397;-70
2022/03/05 07:34:55;;;;;;;44.05;23.98;;;;;;;-0.20;100.00;101980.78;5296134;28;20027;-69
2022/03/05 07:37:26;;;;;;;44.65;23.88;;;;;;;-0.16;100.00;101979.81;5295611;28;20024;-69
2022/03/05 07:39:58;;;;;;;47.97;24.00;;;;;;;-0.15;100.00;101978.09;5296417;28;20024;-69
2022/03/05 07:42:29;;;;;;;48.95;25.70;;;;;;;-0.15;100.00;101978.09;5277436;28;20020;-69
2022/03/05 07:45:01;;;;;;;45.20;23.88;;;;;;;-0.14;100.00;101980.66;5295880;28;20020;-70
2022/03/05 07:47:32;;;;;;;44.40;23.67;;;;;;;-0.05;100.00;101969.28;5295563;28;20172;-70
2022/03/05 07:50:04;;;;;;;42.33;22.02;;;;;;;-0.03;100.00;101959.81;5296406;28;20539;-68
2022/03/05 07:52:35;;;;;;;46.80;24.08;;;;;;;0.09;100.00;101962.09;5295714;28;20111;-71
2022/03/05 07:55:07;;;;;;;53.20;25.70;;;;;;;0.10;100.00;101965.53;5295044;28;20020;-71
2022/03/05 07:57:39;;;;;;;49.03;24.45;;;;;;;0.16;100.00;101976.53;5295938;28;20024;-71
2022/03/05 08:00:10;;;;;;;46.65;24.25;;;;;;;0.26;100.00;101984.88;5294551;28;20019;-71
2022/03/05 08:02:42;;;;;;;46.42;25.10;;;;;;;0.26;100.00;101984.03;5294088;28;20032;-71
2022/03/05 08:05:13;;;;;;;44.55;24.13;;;;;;;0.40;100.00;101992.31;5292573;28;20016;-71
2022/03/05 08:07:44;;;;;;;49.60;25.15;;;;;;;0.49;100.00;101999.81;5296273;28;20065;-71
2022/03/05 08:10:16;;;;;;;50.67;24.88;;;;;;;0.59;100.00;101997.84;5271309;28;20024;-71
2022/03/05 08:12:47;;;;;;;49.05;24.60;;;;;;;0.62;100.00;102006.38;5294614;28;20036;-71
2022/03/05 08:15:19;;;;;;;48.35;26.00;;;;;;;0.69;100.00;102001.91;5293854;28;20023;-71
2022/03/05 08:17:58;;;;;;;44.72;24.63;;;;;;;0.76;100.00;102000.00;5295075;28;20150;-71
2022/03/05 08:20:31;;;;;;;44.40;23.75;;;;;;;0.81;100.00;102005.91;5295884;28;20370;-71
2022/03/05 08:23:02;;;;;;;46.03;23.90;;;;;;;0.90;99.79;102009.09;5295351;28;20020;-72
2022/03/05 08:25:33;;;;;;;51.67;26.30;;;;;;;0.95;97.77;102014.16;5295287;28;20050;-71
2022/03/05 08:28:05;;;;;;;47.72;24.27;;;;;;;0.95;97.75;102003.84;5295624;28;20027;-71
2022/03/05 08:30:36;;;;;;;50.58;26.90;;;;;;;1.10;97.60;102013.75;5295838;28;20035;-71
2022/03/05 08:33:08;;;;;;;51.83;24.23;;;;;;;1.16;97.31;102013.56;5294017;28;20020;-71
2022/03/05 08:35:39;;;;;;;42.40;23.17;;;;;;;1.20;95.96;102017.75;5295615;28;20074;-72
2022/03/05 08:38:10;;;;;;;43.33;24.35;;;;;;;1.28;95.36;102014.13;5295673;28;20023;-71
2022/03/05 08:40:42;;;;;;;47.78;24.00;;;;;;;1.35;95.52;102011.31;5295066;28;20028;-71
2022/03/05 08:43:13;;;;;;;45.20;23.33;;;;;;;1.41;95.35;102016.34;5293131;28;20047;-75
2022/03/05 08:45:45;;;;;;;44.67;23.73;;;;;;;1.48;94.80;102017.03;5294430;28;20038;-71
2022/03/05 08:48:16;;;;;;;48.03;24.67;;;;;;;1.55;94.29;102008.19;5293924;28;20032;-71
2022/03/05 08:50:48;;;;;;;47.30;25.33;;;;;;;1.61;92.94;102018.34;5293209;28;20016;-71
2022/03/05 08:53:19;;;;;;;47.35;23.33;;;;;;;1.70;91.87;102017.22;5292612;28;20057;-71
2022/03/05 08:55:51;;;;;;;44.33;23.23;;;;;;;1.79;91.78;102016.97;5299760;28;20020;-71
2022/03/05 08:58:22;;;;;;;46.97;22.83;;;;;;;1.82;91.38;102008.28;5297521;28;20633;-71
2022/03/05 09:00:54;;;;;;;45.65;24.65;;;;;;;1.89;91.35;102004.63;5299034;28;20038;-71
2022/03/05 09:03:26;;;;;;;44.30;24.23;;;;;;;1.94;90.10;102008.78;5298418;28;20028;-71
2022/03/05 09:05:57;;;;;;;42.08;23.70;;;;;;;2.02;91.47;102018.03;5280285;28;20457;-71
2022/03/05 09:08:29;;;;;;;45.17;25.13;;;;;;;2.15;89.61;102014.16;5295253;28;20040;-72
2022/03/05 09:11:00;;;;;;;47.78;23.30;;;;;;;2.24;88.13;102015.66;5296594;28;20055;-71
2022/03/05 09:13:31;;;;;;;43.33;24.35;;;;;;;2.38;88.48;102016.03;5298080;28;20522;-71
2022/03/05 09:16:04;;;;;;;44.72;23.48;;;;;;;2.52;85.87;102018.19;5295878;28;20055;-71
2022/03/05 09:18:35;;;;;;;40.50;22.08;;;;;;;2.62;85.83;102020.44;5298327;28;20177;-71
2022/03/05 09:21:07;;;;;;;44.97;23.10;;;;;;;2.78;85.27;102005.25;5296867;28;20115;-71
2022/03/05 09:23:39;;;;;;;42.33;24.02;;;;;;;2.84;82.80;102004.16;5297053;28;20035;-70
2022/03/05 09:26:16;;;;;;;43.97;22.40;;;;;;;2.94;82.87;102005.56;5297137;28;20031;-71
2022/03/05 09:28:47;;;;;;;43.33;24.20;;;;;;;3.02;82.74;101994.94;5296635;28;20028;-71
2022/03/05 09:31:19;;;;;;;43.65;23.95;;;;;;;3.12;80.85;102002.34;5275196;28;20023;-71
2022/03/05 09:33:51;;;;;;;40.15;22.85;;;;;;;3.24;78.72;102000.22;5296649;28;20033;-71
2022/03/05 09:36:23;;;;;;;43.92;23.90;;;;;;;3.34;78.32;101999.00;5297460;28;20500;-71
2022/03/05 09:38:54;;;;;;;41.15;22.77;;;;;;;3.46;77.68;101993.34;5295930;28;20036;-72
2022/03/05 09:41:26;;;;;;;43.40;23.80;;;;;;;3.50;78.51;101989.75;5297965;28;20561;-72
2022/03/05 09:43:57;;;;;;;44.58;24.92;;;;;;;3.62;78.07;101999.66;5295781;28;20124;-71
2022/03/05 09:46:28;;;;;;;44.53;23.80;;;;;;;3.82;76.41;101990.28;5296839;28;20020;-72
2022/03/05 09:49:03;;;;;;;44.55;23.67;;;;;;;3.95;75.26;101988.09;5298318;28;20048;-71
2022/03/05 09:51:35;;;;;;;38.70;22.35;;;;;;;4.14;75.35;101996.81;5297719;28;20032;-72
2022/03/05 09:54:06;;;;;;;40.40;22.63;;;;;;;4.13;72.26;101998.59;5297347;28;20653;-71
2022/03/05 09:56:37;;;;;;;39.42;22.98;;;;;;;4.22;72.54;101999.97;5297023;28;20032;-71
2022/03/05 09:59:10;;;;;;;40.55;22.35;;;;;;;4.33;71.36;101992.59;5298037;28;20031;-72
2022/03/05 10:01:42;;;;;;;39.97;23.05;;;;;;;4.46;71.79;101990.34;5297760;28;20024;-71
2022/03/05 10:04:21;;;;;;;40.22;24.48;;;;;;;4.69;70.65;101994.56;5296316;28;20071;-71
2022/03/05 10:07:06;;;;;;;38.88;23.00;;;;;;;4.82;71.66;101995.75;5296698;28;20040;-72
2022/03/05 10:09:39;;;;;;;41.80;22.45;;;;;;;4.80;69.47;102000.16;5298544;28;20028;-71
2022/03/05 10:12:31;;;;;;;39.80;23.73;;;;;;;5.14;70.19;102001.31;5297146;28;20355;-71
2022/03/05 10:15:13;;;;;;;39.08;22.05;;;;;;;5.08;66.53;101997.25;5296496;28;20054;-71
2022/03/05 10:17:52;;;;;;;39.97;22.10;;;;;;;5.33;66.31;101994.41;5297808;28;20386;-72
2022/03/05 10:20:32;;;;;;;36.92;21.80;;;;;;;5.36;66.48;101991.66;5297285;28;20032;-72
2022/03/05 10:23:06;;;;;;;38.03;22.45;;;;;;;5.42;65.71;101990.56;5296552;28;20466;-72
2022/03/05 10:25:43;;;;;;;37.70;21.73;;;;;;;5.54;64.49;101989.16;5296790;28;20043;-72
2022/03/05 10:28:24;;;;;;;38.85;23.15;;;;;;;5.84;64.58;101986.91;5297693;28;20074;-72
2022/03/05 10:31:04;;;;;;;39.72;22.95;;;;;;;5.94;63.04;101982.16;5297815;28;20035;-72
2022/03/05 10:33:42;;;;;;;35.88;21.33;;;;;;;6.03;63.72;101992.97;5294997;28;20077;-71
2022/03/05 10:36:25;;;;;;;35.05;22.05;;;;;;;6.24;62.81;101990.25;5296940;28;20028;-72
2022/03/05 10:39:04;;;;;;;35.72;21.38;;;;;;;6.29;60.17;101993.50;5297605;28;20028;-72
2022/03/05 10:41:40;;;;;;;34.47;21.30;;;;;;;6.35;60.77;101998.38;5296096;28;20070;-72
2022/03/05 10:44:17;;;;;;;36.63;22.70;;;;;;;6.55;58.15;102000.88;5297542;28;20522;-72
2022/03/05 10:47:00;;;;;;;33.53;21.67;;;;;;;6.69;58.35;101984.53;5296805;28;20396;-71
2022/03/05 10:49:37;;;;;;;36.53;21.92;;;;;;;6.75;57.34;101992.06;5296082;28;20079;-72
2022/03/05 10:52:10;;;;;;;33.60;20.00;;;;;;;6.74;56.34;101989.50;5290479;28;20028;-71
2022/03/05 10:54:42;;;;;;;37.03;21.85;;;;;;;6.85;56.61;101987.22;5296893;28;20373;-70
2022/03/05 10:57:22;;;;;;;33.42;20.38;;;;;;;7.01;55.85;101992.50;5296655;28;20039;-72
2022/03/05 11:00:05;;;;;;;34.25;21.95;;;;;;;6.91;56.14;101992.13;5296772;28;20020;-72
2022/03/05 11:02:36;;;;;;;35.03;22.38;;;;;;;7.01;56.53;101987.28;5296124;28;20028;-71
2022/03/05 11:05:08;;;;;;;35.17;22.17;;;;;;;7.10;59.45;101991.19;5296506;28;20047;-72
2022/03/05 11:07:39;;;;;;;38.47;22.80;;;;;;;7.35;60.30;101990.72;5296513;28;20031;-71
2022/03/05 11:10:11;;;;;;;36.45;22.65;;;;;;;7.44;57.46;101991.09;5296564;28;20035;-72
2022/03/05 11:12:46;;;;;;;40.28;23.73;;;;;;;7.51;56.36;101991.59;5296384;28;20349;-71
2022/03/05 11:15:18;;;;;;;37.42;23.15;;;;;;;7.63;56.94;101982.28;5295830;28;20024;-70
2022/03/05 11:17:50;;;;;;;36.03;22.77;;;;;;;7.77;58.53;101987.59;5295943;28;20093;-70
2022/03/05 11:20:21;;;;;;;38.28;23.05;;;;;;;7.74;57.94;101983.38;5296831;28;20067;-72
2022/03/05 11:22:54;;;;;;;39.15;22.40;;;;;;;7.87;58.64;101977.47;5295755;28;20048;-71
2022/03/05 11:25:27;;;;;;;37.85;23.60;;;;;;;8.08;58.88;101980.69;5296377;28;20346;-71
2022/03/05 11:28:00;;;;;;;34.03;22.40;;;;;;;8.02;55.79;101980.06;5296999;28;20032;-72
2022/03/05 11:30:42;;;;;;;37.92;23.65;;;;;;;8.23;55.96;101974.59;5296782;28;20036;-72
2022/03/05 11:33:33;;;;;;;34.15;22.38;;;;;;;8.37;55.70;101976.38;5294136;28;20112;-72
2022/03/05 11:36:22;;;;;;;37.75;23.05;;;;;;;8.57;55.91;101980.53;5296112;28;20412;-71
2022/03/05 11:39:13;;;;;;;38.08;22.80;;;;;;;8.67;54.40;101981.63;5296001;28;20034;-71